Time;durP1;ratioP1;P1;durP2;ratioP2;P2;SDS_P1;SDS_P2;PMS_P1;PMS_P2;Temp;Humidity;BMP_temperature;BMP_pressure;BME280_temperature;BME280_humidity;BME280_pressure;Samples;Min_cycle;Max_cycle;Signal;HPM_P1;HPM_P2
2022/02/11 00:11:30;;;;;;;1.75;1.40;;;;;;;3.86;65.75;100474.97;10469172;28;20047;-71
2022/02/11 00:16:33;;;;;;;1.52;1.20;;;;;;;3.92;66.00;100473.97;10469740;28;20109;-72
2022/02/11 00:21:35;;;;;;;1.80;1.50;;;;;;;3.70;65.83;100479.59;10468430;28;20487;-72
2022/02/11 00:26:39;;;;;;;2.33;1.60;;;;;;;3.78;66.11;100476.88;10469158;28;20049;-71
2022/02/11 01:08:29;;;;;;;2.40;1.65;;;;;;;3.64;66.23;100500.44;10467263;28;20014;-71
2022/02/11 01:13:31;;;;;;;3.42;1.58;;;;;;;3.49;66.51;100505.09;10466447;28;20291;-70
2022/02/11 01:18:33;;;;;;;2.55;1.50;;;;;;;3.44;66.43;100494.00;10464182;28;20040;-72
2022/02/11 01:24:10;;;;;;;3.58;1.73;;;;;;;3.48;66.76;100511.16;10465681;28;20044;-72
2022/02/11 01:29:45;;;;;;;4.38;1.50;;;;;;;3.35;66.72;100509.72;10465247;28;20052;-71
2022/02/11 01:40:13;;;;;;;2.80;1.42;;;;;;;3.49;66.87;100528.38;10465005;28;20049;-72
2022/02/11 01:45:58;;;;;;;1.67;1.38;;;;;;;3.37;66.69;100520.88;10462186;28;20045;-71
2022/02/11 02:17:54;;;;;;;1.90;1.45;;;;;;;3.13;67.57;100522.22;10473376;28;20469;-71
2022/02/11 02:59:01;;;;;;;7.35;2.75;;;;;;;2.99;67.64;100517.34;10471447;28;20052;-71
2022/02/11 04:55:23;;;;;;;12.65;7.25;;;;;;;1.73;69.48;100630.41;10468736;28;20423;-70
2022/02/11 05:00:25;;;;;;;11.07;7.00;;;;;;;1.64;69.84;100640.84;10468148;28;20382;-71
2022/02/11 05:05:27;;;;;;;11.40;6.85;;;;;;;1.65;69.46;100645.13;10474878;28;20563;-70
2022/02/11 05:10:28;;;;;;;11.05;7.30;;;;;;;1.57;69.69;100642.66;10468227;28;20044;-70
2022/02/11 05:15:31;;;;;;;13.13;7.20;;;;;;;1.47;69.98;100646.22;10467785;28;20048;-70
2022/02/11 05:20:33;;;;;;;15.25;7.65;;;;;;;1.27;70.65;100650.72;10468004;28;20055;-70
2022/02/11 05:25:37;;;;;;;18.52;9.80;;;;;;;1.38;70.11;100647.16;10480457;28;20054;-70
2022/02/11 05:30:42;;;;;;;34.38;19.00;;;;;;;1.33;69.78;100630.91;10466451;28;20049;-70
2022/02/11 05:35:44;;;;;;;30.02;15.32;;;;;;;1.33;69.97;100640.34;10467311;28;20496;-70
2022/02/11 05:40:46;;;;;;;17.80;9.88;;;;;;;1.22;70.17;100639.59;10467721;28;20044;-70
2022/02/11 05:45:47;;;;;;;16.17;7.90;;;;;;;1.29;69.87;100642.13;10467466;28;20523;-70
2022/02/11 05:50:49;;;;;;;14.00;7.28;;;;;;;1.34;70.01;100668.69;10467128;28;20211;-70
2022/02/11 05:55:51;;;;;;;19.98;10.00;;;;;;;1.41;69.63;100666.03;10468274;28;20178;-70
2022/02/11 06:00:53;;;;;;;14.77;7.55;;;;;;;1.38;69.88;100670.34;10467140;28;20049;-69
2022/02/11 06:05:55;;;;;;;13.07;6.93;;;;;;;1.44;69.72;100681.47;10466930;28;20040;-69
2022/02/11 06:10:56;;;;;;;13.27;6.35;;;;;;;1.52;69.67;100685.69;10467057;28;20049;-69
2022/02/11 06:15:59;;;;;;;12.77;6.32;;;;;;;1.75;69.24;100688.84;10466737;28;20048;-70
2022/02/11 06:21:01;;;;;;;11.80;6.05;;;;;;;1.85;68.93;100674.94;10466894;28;20040;-70
2022/02/11 06:26:02;;;;;;;15.05;6.15;;;;;;;1.87;68.77;100687.84;10467009;28;21079;-70
2022/02/11 06:31:04;;;;;;;15.85;6.05;;;;;;;1.87;68.69;100698.16;10466903;28;20538;-70
2022/02/11 06:36:06;;;;;;;11.48;6.15;;;;;;;1.91;68.66;100705.00;10466223;28;20060;-70
2022/02/11 06:41:08;;;;;;;13.05;5.90;;;;;;;1.80;68.60;100704.25;10466785;28;20048;-71
2022/02/11 06:46:10;;;;;;;14.90;6.68;;;;;;;1.69;68.48;100703.50;10475335;28;20048;-71
2022/02/11 06:51:12;;;;;;;13.38;5.95;;;;;;;1.63;68.53;100712.19;10475257;28;20133;-71
2022/02/11 06:56:13;;;;;;;15.10;6.20;;;;;;;1.60;68.59;100719.97;10474886;28;20139;-71
2022/02/11 07:01:16;;;;;;;15.10;5.80;;;;;;;1.61;69.05;100739.69;10474064;28;20051;-71
2022/02/11 07:06:19;;;;;;;16.08;6.35;;;;;;;1.71;68.51;100753.34;10474749;28;20416;-71
2022/02/11 07:11:21;;;;;;;15.50;5.78;;;;;;;1.68;68.67;100753.38;10473176;28;20363;-72
2022/02/11 07:16:23;;;;;;;17.13;5.78;;;;;;;1.60;68.83;100752.63;10471034;28;20415;-72
2022/02/11 07:21:25;;;;;;;13.68;5.80;;;;;;;1.88;68.49;100762.63;10472877;28;20052;-72
2022/02/11 07:26:27;;;;;;;17.80;5.38;;;;;;;2.04;67.94;100773.59;10474583;28;20763;-71
2022/02/11 07:31:29;;;;;;;14.80;4.95;;;;;;;2.25;67.65;100785.41;10472370;28;20408;-71
2022/02/11 07:36:30;;;;;;;15.95;5.95;;;;;;;2.58;67.29;100806.44;10473171;28;20486;-71
2022/02/11 07:41:32;;;;;;;16.88;5.10;;;;;;;2.73;66.82;100795.06;10466526;28;20048;-71
2022/02/11 07:46:35;;;;;;;11.65;4.45;;;;;;;2.64;67.12;100814.13;10470144;28;20138;-71
2022/02/11 07:51:37;;;;;;;12.82;4.70;;;;;;;2.59;66.81;100815.06;10470510;28;20140;-71
2022/02/11 07:56:39;;;;;;;9.82;4.20;;;;;;;2.57;66.83;100820.25;10470066;28;20058;-71
2022/02/11 08:01:41;;;;;;;10.38;4.10;;;;;;;2.78;66.75;100832.88;10467514;28;20144;-71
2022/02/11 08:06:43;;;;;;;11.88;4.13;;;;;;;3.13;65.92;100844.44;10471891;28;20139;-71
2022/02/11 08:11:44;;;;;;;12.90;4.18;;;;;;;3.13;65.63;100839.28;10470547;28;20303;-70
2022/02/11 08:16:46;;;;;;;12.68;3.97;;;;;;;3.19;65.51;100839.19;10466651;28;20135;-71
2022/02/11 08:21:49;;;;;;;9.77;4.43;;;;;;;3.24;65.18;100845.97;10471472;28;20056;-70
2022/02/11 08:26:51;;;;;;;13.88;4.40;;;;;;;3.74;64.65;100860.69;10469012;28;20107;-71
2022/02/11 08:31:55;;;;;;;15.00;4.60;;;;;;;4.11;64.17;100866.91;10467133;28;20060;-71
2022/02/11 08:36:57;;;;;;;15.73;4.78;;;;;;;4.00;64.11;100887.00;10468959;28;20143;-71
2022/02/11 08:41:59;;;;;;;13.20;4.05;;;;;;;3.98;64.55;100893.94;10469224;28;20040;-70
2022/02/11 08:47:01;;;;;;;11.95;4.18;;;;;;;4.16;63.87;100908.25;10469293;28;20123;-69
2022/02/11 08:52:03;;;;;;;13.13;4.13;;;;;;;4.53;63.31;100911.88;10468230;28;20432;-70
2022/02/11 08:57:04;;;;;;;15.27;4.03;;;;;;;4.73;63.06;100933.06;10468535;28;20398;-70
2022/02/11 09:02:11;;;;;;;15.63;4.05;;;;;;;4.46;63.83;100951.72;10467414;28;20048;-71
2022/02/11 09:07:12;;;;;;;15.52;3.95;;;;;;;4.51;64.22;100958.53;10468409;28;20257;-71
2022/02/11 09:12:14;;;;;;;14.27;3.90;;;;;;;4.46;64.10;100965.53;10469132;28;20143;-70
2022/02/11 09:17:16;;;;;;;13.32;3.67;;;;;;;4.44;64.41;100974.19;10467918;28;20056;-70
2022/02/11 09:22:19;;;;;;;15.35;3.50;;;;;;;4.66;63.31;100975.50;10468091;28;20055;-70
2022/02/11 09:27:21;;;;;;;13.82;3.40;;;;;;;4.85;62.18;100981.19;10468906;28;20974;-67
2022/02/11 09:32:23;;;;;;;14.10;2.90;;;;;;;4.60;61.95;100992.03;10460603;28;20207;-66
2022/02/11 09:37:27;;;;;;;12.30;3.20;;;;;;;5.03;61.46;100986.00;10466285;28;20496;-66
2022/02/11 09:42:31;;;;;;;12.20;3.28;;;;;;;5.24;60.97;100996.81;10474384;28;20052;-66
2022/02/11 09:47:37;;;;;;;12.10;3.10;;;;;;;5.52;59.37;101023.84;10467174;28;20048;-66
2022/02/11 09:52:43;;;;;;;19.27;3.90;;;;;;;5.24;59.19;101027.06;10467131;28;20044;-67
2022/02/11 09:57:46;;;;;;;17.10;3.50;;;;;;;5.38;58.83;101025.88;10466702;28;20106;-66
2022/02/11 10:02:53;;;;;;;11.85;2.80;;;;;;;5.84;58.53;101049.06;10466837;28;20041;-66
2022/02/11 10:07:55;;;;;;;14.55;3.10;;;;;;;5.72;58.15;101043.28;10463707;28;20174;-67
2022/02/11 10:12:56;;;;;;;14.15;2.70;;;;;;;5.86;57.54;101070.66;10462672;28;20097;-67
2022/02/11 10:17:58;;;;;;;13.82;4.00;;;;;;;6.02;56.50;101082.41;10469570;28;20427;-67
2022/02/11 10:23:23;;;;;;;10.85;2.80;;;;;;;5.96;55.55;101090.34;10471122;28;20052;-67
2022/02/11 10:28:35;;;;;;;12.80;2.80;;;;;;;5.91;55.71;101110.38;10473684;28;20155;-66
2022/02/11 10:33:50;;;;;;;13.27;2.95;;;;;;;5.46;55.14;101116.53;10474081;28;20153;-66
2022/02/11 10:39:12;;;;;;;12.30;2.70;;;;;;;5.56;56.04;101133.59;10472874;28;20126;-67
2022/02/11 10:44:15;;;;;;;12.60;3.28;;;;;;;6.11;57.00;101134.16;10472524;28;20048;-65
2022/02/11 10:49:28;;;;;;;13.38;3.15;;;;;;;5.75;55.83;101137.56;10473528;28;20048;-66
2022/02/11 10:54:34;;;;;;;12.68;3.00;;;;;;;5.68;56.12;101148.06;10473116;28;20053;-65
2022/02/11 10:59:39;;;;;;;14.10;3.20;;;;;;;5.74;56.00;101150.56;10472687;28;20144;-66
2022/02/11 11:04:40;;;;;;;14.50;3.10;;;;;;;5.62;55.83;101154.25;10473527;28;20138;-65
2022/02/11 11:09:47;;;;;;;14.75;2.78;;;;;;;5.52;56.16;101163.97;10472136;28;20151;-65
2022/02/11 11:14:54;;;;;;;13.80;3.10;;;;;;;5.63;55.79;101170.69;10473554;28;20519;-66
2022/02/11 11:19:58;;;;;;;17.27;3.08;;;;;;;5.55;56.19;101168.25;10472980;28;20045;-66
2022/02/11 11:25:10;;;;;;;14.13;3.28;;;;;;;5.61;55.78;101172.44;10471337;28;20135;-66
2022/02/11 11:30:36;;;;;;;14.43;3.38;;;;;;;5.55;53.55;101168.25;10471939;28;20394;-66
2022/02/11 11:35:47;;;;;;;18.80;3.60;;;;;;;5.67;54.76;101174.91;10470057;28;20153;-65
2022/02/11 11:41:10;;;;;;;14.98;3.47;;;;;;;5.71;54.14;101177.44;10469554;28;20138;-66
2022/02/11 11:46:17;;;;;;;19.15;3.80;;;;;;;5.57;55.63;101182.88;10470684;28;20551;-66
2022/02/11 11:51:24;;;;;;;16.25;3.70;;;;;;;5.42;56.25;101185.78;10470472;28;20051;-66
2022/02/11 11:56:36;;;;;;;12.48;3.10;;;;;;;5.25;56.17;101179.19;10470740;28;20143;-66
2022/02/11 12:01:54;;;;;;;14.30;3.53;;;;;;;5.68;54.44;101184.41;10469028;28;20048;-66
2022/02/11 12:07:01;;;;;;;15.88;3.45;;;;;;;5.89;54.08;101183.97;10471736;28;20132;-65
2022/02/11 12:12:08;;;;;;;17.20;3.65;;;;;;;5.89;53.65;101195.22;10470230;28;20507;-66
2022/02/11 12:17:15;;;;;;;22.25;3.60;;;;;;;6.36;52.51;101191.63;10469086;28;20496;-65
2022/02/11 12:22:19;;;;;;;14.30;3.03;;;;;;;6.07;52.95;101202.63;10469432;28;20477;-66
2022/02/11 12:27:33;;;;;;;19.70;3.63;;;;;;;5.92;53.16;101204.69;10469588;28;20633;-66
2022/02/11 12:32:40;;;;;;;17.42;3.60;;;;;;;5.59;53.31;101205.34;10469073;28;20141;-65
2022/02/11 12:37:45;;;;;;;14.70;3.88;;;;;;;6.04;53.79;101223.44;10468943;28;20098;-66
2022/02/11 12:42:50;;;;;;;16.92;4.78;;;;;;;6.07;55.03;101231.19;10469499;28;20371;-66
2022/02/11 12:47:53;;;;;;;13.65;3.00;;;;;;;5.99;53.83;101220.13;10469250;28;20120;-66
2022/02/11 12:52:57;;;;;;;14.52;3.80;;;;;;;5.81;55.06;101238.66;10468190;28;20048;-66
2022/02/11 12:58:01;;;;;;;19.80;3.90;;;;;;;5.62;55.50;101242.47;10483672;28;20052;-67
2022/02/11 13:03:05;;;;;;;15.50;3.35;;;;;;;5.54;56.02;101246.97;10467762;28;20538;-66
2022/02/11 13:08:08;;;;;;;17.63;3.55;;;;;;;5.76;55.76;101248.25;10467252;28;20142;-66
2022/02/11 13:13:16;;;;;;;18.00;3.63;;;;;;;5.99;54.51;101232.22;10490291;28;20055;-66
2022/02/11 13:18:20;;;;;;;16.98;3.70;;;;;;;6.19;53.59;101241.31;10467595;28;20058;-66
2022/02/11 13:23:24;;;;;;;14.75;3.45;;;;;;;6.43;53.46;101252.13;10483420;28;20080;-67
2022/02/11 13:28:27;;;;;;;13.43;3.10;;;;;;;6.37;52.27;101258.28;10483006;28;20082;-66
2022/02/11 13:33:34;;;;;;;13.85;3.40;;;;;;;6.39;48.89;101263.47;10467363;28;20052;-67
2022/02/11 13:38:39;;;;;;;22.70;3.53;;;;;;;6.37;49.84;101270.44;10466210;28;20088;-67
2022/02/11 13:43:50;;;;;;;15.25;2.97;;;;;;;6.43;49.39;101278.94;10467337;28;20092;-66
2022/02/11 13:49:14;;;;;;;15.63;3.15;;;;;;;6.30;48.27;101264.53;10467353;28;20057;-66
2022/02/11 13:54:18;;;;;;;12.30;2.65;;;;;;;6.17;48.92;101279.47;10479032;28;20389;-65
2022/02/11 13:59:30;;;;;;;15.40;3.08;;;;;;;6.25;46.70;101277.59;10481933;28;20149;-65
2022/02/11 14:04:33;;;;;;;12.85;2.85;;;;;;;6.11;47.55;101282.19;10479402;28;20439;-65
2022/02/11 14:09:40;;;;;;;15.02;2.97;;;;;;;6.24;45.04;101278.47;10480702;28;20121;-66
2022/02/11 14:14:57;;;;;;;13.85;2.50;;;;;;;5.89;43.14;101293.03;10480471;28;20188;-65
2022/02/11 14:19:58;;;;;;;10.43;2.42;;;;;;;5.80;45.12;101301.84;10479443;28;20096;-66
2022/02/11 14:25:00;;;;;;;13.02;2.85;;;;;;;6.10;45.04;101303.84;10479647;28;20140;-65
2022/02/11 14:30:03;;;;;;;11.10;2.40;;;;;;;6.22;45.30;101316.63;10480904;28;20074;-66
2022/02/11 14:35:07;;;;;;;11.35;2.70;;;;;;;5.95;45.85;101321.47;10480494;28;20048;-66
2022/02/11 14:40:09;;;;;;;13.70;2.63;;;;;;;5.84;46.01;101334.63;10479018;28;20479;-67
2022/02/11 14:45:11;;;;;;;13.10;2.88;;;;;;;5.76;46.50;101346.91;10477801;28;20106;-67
2022/02/11 14:50:13;;;;;;;13.98;2.78;;;;;;;6.00;46.80;101341.25;10480410;28;20082;-67
2022/02/11 14:55:16;;;;;;;11.57;3.00;;;;;;;5.97;45.52;101343.94;10506122;28;20527;-67
2022/02/11 15:00:18;;;;;;;18.00;3.25;;;;;;;5.75;45.64;101350.41;10482491;28;20809;-67
2022/02/11 15:05:20;;;;;;;13.07;2.85;;;;;;;5.69;45.61;101362.63;10473661;28;20056;-67
2022/02/11 15:10:22;;;;;;;13.77;2.90;;;;;;;5.67;45.63;101360.06;10472803;28;20489;-67
2022/02/11 15:15:25;;;;;;;12.45;3.20;;;;;;;5.42;45.49;101363.94;10472987;28;20056;-66
2022/02/11 15:20:27;;;;;;;10.70;3.10;;;;;;;5.37;46.06;101376.97;10471885;28;20918;-67
2022/02/11 15:25:31;;;;;;;18.75;3.35;;;;;;;5.57;46.13;101378.41;10477035;28;20534;-67
2022/02/11 15:30:33;;;;;;;16.27;3.40;;;;;;;5.63;45.95;101383.50;10481469;28;20159;-66
2022/02/11 15:35:35;;;;;;;12.50;2.92;;;;;;;5.64;46.35;101388.66;10471034;28;20580;-67
2022/02/11 15:40:37;;;;;;;15.70;2.72;;;;;;;5.70;46.37;101396.31;10470472;28;20772;-66
2022/02/11 15:45:39;;;;;;;18.70;3.42;;;;;;;5.76;46.94;101410.97;10471522;28;20052;-66
2022/02/11 15:50:41;;;;;;;11.95;2.80;;;;;;;5.68;47.43;101408.47;10471699;28;20532;-66
2022/02/11 15:55:45;;;;;;;15.50;2.92;;;;;;;5.57;47.73;101419.91;10471195;28;20062;-66
2022/02/11 16:00:47;;;;;;;20.45;3.05;;;;;;;5.45;48.19;101415.78;10470000;28;20044;-67
2022/02/11 16:05:49;;;;;;;17.13;3.13;;;;;;;5.05;47.96;101422.41;10470959;28;20045;-67
2022/02/11 16:10:51;;;;;;;14.52;3.13;;;;;;;4.92;48.18;101418.28;10469177;28;20052;-66
2022/02/11 16:15:54;;;;;;;14.43;2.72;;;;;;;4.77;47.95;101431.41;10477541;28;20500;-67
2022/02/11 16:20:56;;;;;;;15.98;2.70;;;;;;;4.55;48.27;101443.78;10471302;28;20167;-66
2022/02/11 16:26:00;;;;;;;16.20;2.90;;;;;;;4.49;49.20;101464.56;10468968;28;20041;-67
2022/02/11 16:31:23;;;;;;;11.52;2.70;;;;;;;4.28;49.23;101463.06;10467721;28;20066;-67
2022/02/11 16:36:28;;;;;;;13.60;3.03;;;;;;;4.23;51.30;101462.22;10468043;28;20131;-67
2022/02/11 16:41:30;;;;;;;13.95;3.70;;;;;;;4.12;51.25;101469.25;10467111;28;20044;-67
2022/02/11 16:46:34;;;;;;;17.13;3.13;;;;;;;4.09;51.30;101477.03;10468353;28;20143;-66
2022/02/11 16:51:39;;;;;;;13.27;3.25;;;;;;;4.09;51.79;101474.44;10467843;28;20285;-66
2022/02/11 16:56:40;;;;;;;17.70;4.13;;;;;;;4.02;52.90;101488.31;10468240;28;20131;-66
2022/02/11 17:01:47;;;;;;;15.82;2.83;;;;;;;3.99;53.16;101493.50;10469230;28;20056;-66
2022/02/11 17:06:49;;;;;;;14.75;3.20;;;;;;;3.84;53.62;101504.84;10467102;28;20048;-66
2022/02/11 17:11:50;;;;;;;19.85;3.60;;;;;;;3.78;53.40;101498.84;10466621;28;20127;-66
2022/02/11 17:16:52;;;;;;;16.45;3.47;;;;;;;3.66;53.75;101517.03;10468551;28;20056;-66
2022/02/11 17:21:55;;;;;;;15.27;3.33;;;;;;;3.67;53.36;101517.03;10467651;28;20048;-66
2022/02/11 17:26:57;;;;;;;20.52;3.60;;;;;;;3.64;52.31;101521.38;10467544;28;20055;-66
2022/02/11 17:31:59;;;;;;;17.30;3.00;;;;;;;3.59;51.83;101526.56;10466868;28;20063;-66
2022/02/11 17:37:04;;;;;;;10.48;2.65;;;;;;;3.49;51.71;101537.81;10464525;28;20614;-66
2022/02/11 17:42:06;;;;;;;15.48;2.90;;;;;;;3.37;51.69;101537.03;10466502;28;20062;-66
2022/02/11 17:47:08;;;;;;;15.27;2.92;;;;;;;3.33;51.95;101543.94;10467588;28;20053;-66
2022/02/11 17:52:12;;;;;;;18.98;2.75;;;;;;;3.31;51.31;101537.06;10478051;28;20409;-66
2022/02/11 17:57:13;;;;;;;17.73;5.00;;;;;;;3.21;51.86;101548.31;10467714;28;20052;-66
2022/02/11 18:02:15;;;;;;;20.80;5.43;;;;;;;3.00;52.76;101554.41;10465901;28;20513;-66
2022/02/11 18:07:18;;;;;;;17.90;4.60;;;;;;;2.72;53.21;101555.34;10465678;28;20489;-66
2022/02/11 18:12:22;;;;;;;14.63;4.55;;;;;;;2.67;53.75;101562.22;10458845;28;20071;-66
2022/02/11 18:17:25;;;;;;;14.43;3.92;;;;;;;2.42;54.21;101551.06;10461913;28;20281;-66
2022/02/11 18:22:27;;;;;;;15.60;4.05;;;;;;;2.40;54.87;101564.88;10466077;28;20051;-66
2022/02/11 18:27:29;;;;;;;17.75;5.72;;;;;;;2.30;55.68;101568.31;10474721;28;20383;-66
2022/02/11 18:32:30;;;;;;;18.08;5.10;;;;;;;2.09;56.95;101576.91;10462360;28;20535;-65
2022/02/11 18:37:32;;;;;;;19.83;6.32;;;;;;;1.97;57.32;101582.91;10466494;28;20044;-66
2022/02/11 18:42:37;;;;;;;17.73;4.68;;;;;;;1.91;57.68;101582.03;10471066;28;20056;-66
2022/02/11 18:47:38;;;;;;;17.17;4.10;;;;;;;1.85;57.78;101589.75;10471734;28;20048;-66
2022/02/11 18:52:42;;;;;;;15.65;4.82;;;;;;;1.73;58.23;101582.84;10473070;28;20045;-66
2022/02/11 18:57:44;;;;;;;19.73;5.20;;;;;;;1.60;58.94;101585.41;10471967;28;20048;-65
2022/02/11 19:02:46;;;;;;;16.45;4.97;;;;;;;1.48;59.33;101596.56;10471886;28;20062;-66
2022/02/11 19:07:48;;;;;;;22.63;6.00;;;;;;;1.27;59.65;101602.47;10471591;28;20439;-65
2022/02/11 19:12:50;;;;;;;18.05;6.13;;;;;;;1.13;60.07;101614.44;10477526;28;20057;-66
2022/02/11 19:17:53;;;;;;;17.08;5.20;;;;;;;1.04;60.77;101614.38;10470911;28;20172;-66
2022/02/11 19:22:55;;;;;;;22.15;6.30;;;;;;;1.01;60.62;101614.38;10473134;28;20044;-65
2022/02/11 19:28:01;;;;;;;26.63;8.57;;;;;;;0.95;61.23;101614.31;10488116;28;20048;-65
2022/02/11 19:33:05;;;;;;;18.20;5.38;;;;;;;0.90;61.52;101616.00;10470200;28;20067;-65
2022/02/11 19:38:07;;;;;;;22.73;5.90;;;;;;;0.76;61.17;101617.63;10470917;28;20060;-65
2022/02/11 19:43:09;;;;;;;17.27;5.05;;;;;;;0.56;62.14;101614.06;10471869;28;20040;-65
2022/02/11 19:48:11;;;;;;;22.45;5.38;;;;;;;0.45;62.10;101631.09;10468137;28;20052;-65
2022/02/11 19:53:12;;;;;;;22.02;5.32;;;;;;;0.39;62.15;101631.06;10470181;28;20055;-65
2022/02/11 19:58:16;;;;;;;17.90;5.20;;;;;;;0.39;62.36;101623.34;10471199;28;20066;-65
2022/02/11 20:03:18;;;;;;;22.20;5.38;;;;;;;0.32;62.45;101652.47;10500367;28;20051;-66
2022/02/11 20:08:19;;;;;;;17.00;5.10;;;;;;;0.22;62.79;101645.50;10470718;28;20075;-66
2022/02/11 20:13:21;;;;;;;22.95;5.00;;;;;;;0.24;62.77;101648.94;10475201;28;20060;-66
2022/02/11 20:18:23;;;;;;;26.00;5.82;;;;;;;0.21;62.94;101659.19;10472076;28;20064;-66
2022/02/11 20:23:25;;;;;;;18.15;5.15;;;;;;;0.18;63.41;101661.75;10469076;28;20098;-66
2022/02/11 20:28:27;;;;;;;19.52;5.57;;;;;;;0.11;63.29;101670.25;10469335;28;20052;-66
2022/02/11 20:33:29;;;;;;;18.35;5.50;;;;;;;0.09;63.58;101669.38;10468051;28;20467;-66
2022/02/11 20:38:30;;;;;;;19.95;5.03;;;;;;;0.11;63.58;101665.97;10466445;28;20055;-66
2022/02/11 20:43:32;;;;;;;21.13;5.47;;;;;;;0.07;63.54;101679.66;10465789;28;20054;-66
2022/02/11 20:48:37;;;;;;;19.20;5.95;;;;;;;0.06;63.53;101683.06;10466993;28;20051;-65
2022/02/11 20:53:39;;;;;;;17.52;5.88;;;;;;;0.03;63.26;101698.47;10467390;28;20056;-65
2022/02/11 20:58:41;;;;;;;16.45;5.38;;;;;;;0.01;63.83;101707.00;10466410;28;20143;-65
2022/02/11 21:03:43;;;;;;;17.42;4.70;;;;;;;0.02;63.67;101712.16;10467218;28;20048;-65
2022/02/11 21:08:47;;;;;;;16.80;5.20;;;;;;;-0.10;63.92;101712.03;10466761;28;20059;-66
2022/02/11 21:13:49;;;;;;;20.73;5.18;;;;;;;-0.18;64.25;101713.63;10466041;28;20131;-65
2022/02/11 21:18:51;;;;;;;21.55;6.15;;;;;;;-0.24;64.39;101723.84;10466119;28;20411;-66
2022/02/11 21:23:53;;;;;;;21.73;7.88;;;;;;;-0.24;64.37;101722.97;10476246;28;20056;-65
2022/02/11 21:28:54;;;;;;;24.13;8.00;;;;;;;-0.27;64.39;101728.09;10466866;28;20054;-65
2022/02/11 21:33:56;;;;;;;22.08;7.10;;;;;;;-0.33;64.43;101719.44;10467195;28;20050;-66
2022/02/11 21:38:58;;;;;;;19.80;6.40;;;;;;;-0.41;64.12;101726.19;10464031;28;20057;-65
2022/02/11 21:44:00;;;;;;;24.77;6.57;;;;;;;-0.51;64.56;101718.34;10464968;28;20045;-64
2022/02/11 21:49:04;;;;;;;22.52;6.13;;;;;;;-0.54;64.72;101734.59;10461880;28;20485;-65
2022/02/11 21:54:11;;;;;;;19.77;5.78;;;;;;;-0.55;64.93;101735.44;10465649;28;20064;-65
2022/02/11 21:59:15;;;;;;;18.77;5.60;;;;;;;-0.55;64.97;101726.84;10467721;28;20141;-65
2022/02/11 22:04:18;;;;;;;17.33;5.95;;;;;;;-0.61;65.21;101743.06;10465054;28;20083;-65
2022/02/11 22:09:20;;;;;;;21.33;7.05;;;;;;;-0.70;64.90;101744.63;10466601;28;20060;-65
2022/02/11 22:14:22;;;;;;;24.70;8.90;;;;;;;-0.79;65.36;101739.34;10489370;28;20082;-65
2022/02/11 22:19:23;;;;;;;35.92;12.27;;;;;;;-0.79;65.19;101742.78;10474867;28;20132;-65
2022/02/11 22:24:25;;;;;;;21.38;6.93;;;;;;;-0.81;65.27;101730.75;10475270;28;20059;-64
2022/02/11 22:29:27;;;;;;;19.42;6.60;;;;;;;-0.79;65.28;101740.22;10472270;28;20070;-65
2022/02/11 22:34:31;;;;;;;23.73;6.70;;;;;;;-0.83;65.59;101735.00;10474185;28;20048;-72
2022/02/11 22:39:33;;;;;;;23.83;6.68;;;;;;;-0.87;65.65;101728.09;10473195;28;20136;-71
2022/02/11 22:44:35;;;;;;;22.63;6.65;;;;;;;-0.93;65.79;101739.16;10475320;28;20088;-71
2022/02/11 22:54:59;;;;;;;19.00;6.72;;;;;;;-1.11;66.01;101720.88;10474886;28;20135;-73
2022/02/11 23:00:01;;;;;;;18.10;6.50;;;;;;;-1.10;66.11;101722.59;10475310;28;20049;-72
2022/02/11 23:10:24;;;;;;;22.95;8.57;;;;;;;-1.18;66.22;101713.91;10483364;28;20522;-72
2022/02/11 23:15:29;;;;;;;23.48;7.15;;;;;;;-1.20;66.28;101715.59;10475039;28;20123;-72
2022/02/11 23:20:31;;;;;;;23.58;7.97;;;;;;;-1.37;65.96;101710.19;10473415;28;20468;-73
2022/02/11 23:25:33;;;;;;;21.33;6.57;;;;;;;-1.50;66.54;101705.69;10471178;28;20518;-72
2022/02/11 23:30:36;;;;;;;24.40;8.10;;;;;;;-1.46;66.67;101699.78;10473052;28;20058;-72
2022/02/11 23:35:39;;;;;;;21.13;7.13;;;;;;;-1.45;66.68;101716.03;10470056;28;20558;-72
2022/02/11 23:40:41;;;;;;;27.48;7.65;;;;;;;-1.53;66.39;101700.50;10471482;28;20055;-72
2022/02/11 23:45:43;;;;;;;19.88;7.13;;;;;;;-1.53;66.49;101710.75;10477921;28;20143;-72
2022/02/11 23:50:45;;;;;;;18.33;7.13;;;;;;;-1.57;66.56;101715.78;10482292;28;20052;-72
2022/02/11 23:55:48;;;;;;;23.42;6.97;;;;;;;-1.51;66.79;101718.50;10473888;28;20091;-72
